sensor_id;sensor_type;location;lat;lon;timestamp;pressure;altitude;pressure_sealevel;temperature;humidity
80777;BME280;70169;51.262;6.336;2023-05-24T00:00:58;101800.13;;;10.50;63.01
80777;BME280;70169;51.262;6.336;2023-05-24T00:04:41;101800.31;;;10.48;63.31
80777;BME280;70169;51.262;6.336;2023-05-24T00:08:23;101799.47;;;10.48;62.94
80777;BME280;70169;51.262;6.336;2023-05-24T00:12:06;101790.25;;;10.44;63.27
80777;BME280;70169;51.262;6.336;2023-05-24T00:15:48;101801.31;;;10.39;63.52
80777;BME280;70169;51.262;6.336;2023-05-24T00:19:31;101798.53;;;10.32;63.32
80777;BME280;70169;51.262;6.336;2023-05-24T00:23:13;101792.72;;;10.29;63.96
80777;BME280;70169;51.262;6.336;2023-05-24T00:26:55;101790.47;;;10.26;63.59
80777;BME280;70169;51.262;6.336;2023-05-24T00:30:37;101790.78;;;10.22;64.29
80777;BME280;70169;51.262;6.336;2023-05-24T00:34:20;101787.81;;;10.17;64.15
80777;BME280;70169;51.262;6.336;2023-05-24T00:38:02;101761.63;;;9.99;64.59
80777;BME280;70169;51.262;6.336;2023-05-24T00:41:44;101773.50;;;10.03;64.44
80777;BME280;70169;51.262;6.336;2023-05-24T00:45:27;101778.16;;;10.01;65.16
80777;BME280;70169;51.262;6.336;2023-05-24T00:49:09;101774.34;;;9.96;65.39
80777;BME280;70169;51.262;6.336;2023-05-24T00:52:51;101782.94;;;9.90;64.61
80777;BME280;70169;51.262;6.336;2023-05-24T00:56:34;101774.72;;;9.84;65.58
80777;BME280;70169;51.262;6.336;2023-05-24T01:00:16;101778.66;;;9.80;65.37
80777;BME280;70169;51.262;6.336;2023-05-24T01:03:59;101780.34;;;9.73;66.23
80777;BME280;70169;51.262;6.336;2023-05-24T01:11:50;101783.16;;;9.63;65.98
80777;BME280;70169;51.262;6.336;2023-05-24T01:15:56;101774.94;;;9.58;66.55
80777;BME280;70169;51.262;6.336;2023-05-24T01:27:36;101770.16;;;9.45;67.25
80777;BME280;70169;51.262;6.336;2023-05-24T01:31:19;101774.13;;;9.41;66.48
80777;BME280;70169;51.262;6.336;2023-05-24T01:35:02;101774.44;;;9.38;66.68
80777;BME280;70169;51.262;6.336;2023-05-24T01:38:45;101774.13;;;9.33;67.23
80777;BME280;70169;51.262;6.336;2023-05-24T01:42:36;101767.69;;;9.27;67.28
80777;BME280;70169;51.262;6.336;2023-05-24T01:46:36;101766.84;;;9.27;67.64
80777;BME280;70169;51.262;6.336;2023-05-24T01:50:24;101762.06;;;9.22;67.53
80777;BME280;70169;51.262;6.336;2023-05-24T01:54:08;101752.84;;;9.18;67.67
80777;BME280;70169;51.262;6.336;2023-05-24T01:57:52;101761.09;;;9.15;68.16
80777;BME280;70169;51.262;6.336;2023-05-24T02:01:39;101756.31;;;9.10;67.88
80777;BME280;70169;51.262;6.336;2023-05-24T02:05:22;101729.94;;;8.94;68.14
80777;BME280;70169;51.262;6.336;2023-05-24T02:09:05;101747.41;;;9.03;67.82
80777;BME280;70169;51.262;6.336;2023-05-24T02:12:47;101745.91;;;9.01;67.47
80777;BME280;70169;51.262;6.336;2023-05-24T02:16:29;101729.94;;;8.94;68.24
80777;BME280;70169;51.262;6.336;2023-05-24T02:20:12;101732.91;;;8.91;68.61
80777;BME280;70169;51.262;6.336;2023-05-24T02:23:54;101742.47;;;8.92;68.53
80777;BME280;70169;51.262;6.336;2023-05-24T02:27:36;101754.16;;;8.89;68.38
80777;BME280;70169;51.262;6.336;2023-05-24T02:31:19;101745.75;;;8.86;68.79
80777;BME280;70169;51.262;6.336;2023-05-24T02:35:02;101742.41;;;8.75;68.50
80777;BME280;70169;51.262;6.336;2023-05-24T02:38:45;101724.81;;;8.68;68.27
80777;BME280;70169;51.262;6.336;2023-05-24T02:42:27;101745.75;;;8.78;68.59
80777;BME280;70169;51.262;6.336;2023-05-24T02:46:10;101746.88;;;8.75;68.76
80777;BME280;70169;51.262;6.336;2023-05-24T02:49:52;101754.28;;;8.71;68.46
80777;BME280;70169;51.262;6.336;2023-05-24T02:53:35;101741.44;;;8.68;69.00
80777;BME280;70169;51.262;6.336;2023-05-24T02:57:18;101730.88;;;8.60;68.99
80777;BME280;70169;51.262;6.336;2023-05-24T03:01:00;101748.00;;;8.64;69.35
80777;BME280;70169;51.262;6.336;2023-05-24T03:04:43;101748.00;;;8.64;68.80
80777;BME280;70169;51.262;6.336;2023-05-24T03:08:25;101751.97;;;8.60;69.30
80777;BME280;70169;51.262;6.336;2023-05-24T03:12:07;101750.63;;;8.56;69.22
80777;BME280;70169;51.262;6.336;2023-05-24T03:15:50;101746.50;;;8.53;69.47
80777;BME280;70169;51.262;6.336;2023-05-24T03:19:32;101745.00;;;8.51;69.31
80777;BME280;70169;51.262;6.336;2023-05-24T03:23:15;101756.03;;;8.46;69.95
80777;BME280;70169;51.262;6.336;2023-05-24T03:26:57;101749.94;;;8.46;68.95
80777;BME280;70169;51.262;6.336;2023-05-24T03:30:40;101748.28;;;8.45;70.04
80777;BME280;70169;51.262;6.336;2023-05-24T03:34:22;101738.00;;;8.33;69.30
80777;BME280;70169;51.262;6.336;2023-05-24T03:38:04;101757.31;;;8.42;69.79
80777;BME280;70169;51.262;6.336;2023-05-24T03:41:47;101757.47;;;8.40;69.39
80777;BME280;70169;51.262;6.336;2023-05-24T03:45:29;101741.09;;;8.20;69.56
80777;BME280;70169;51.262;6.336;2023-05-24T03:49:12;101733.19;;;8.20;69.75
80777;BME280;70169;51.262;6.336;2023-05-24T03:52:54;101759.75;;;8.35;70.40
80777;BME280;70169;51.262;6.336;2023-05-24T03:56:36;101765.53;;;8.39;69.67
80777;BME280;70169;51.262;6.336;2023-05-24T04:00:19;101765.38;;;8.40;69.95
80777;BME280;70169;51.262;6.336;2023-05-24T04:04:02;101764.25;;;8.43;70.58
80777;BME280;70169;51.262;6.336;2023-05-24T04:07:45;101761.63;;;8.43;70.43
80777;BME280;70169;51.262;6.336;2023-05-24T04:11:27;101737.19;;;8.33;70.06
80777;BME280;70169;51.262;6.336;2023-05-24T04:15:10;101754.06;;;8.48;70.40
80777;BME280;70169;51.262;6.336;2023-05-24T04:18:56;101756.47;;;8.42;70.56
80777;BME280;70169;51.262;6.336;2023-05-24T04:22:39;101758.50;;;8.48;70.75
80777;BME280;70169;51.262;6.336;2023-05-24T04:26:21;101761.78;;;8.50;70.44
80777;BME280;70169;51.262;6.336;2023-05-24T04:30:04;101755.56;;;8.51;71.01
80777;BME280;70169;51.262;6.336;2023-05-24T04:33:46;101769.53;;;8.51;70.80
80777;BME280;70169;51.262;6.336;2023-05-24T04:37:29;101763.31;;;8.52;70.34
80777;BME280;70169;51.262;6.336;2023-05-24T04:41:12;101759.69;;;8.53;70.90
80777;BME280;70169;51.262;6.336;2023-05-24T04:44:55;101760.66;;;8.52;70.89
80777;BME280;70169;51.262;6.336;2023-05-24T04:48:37;101769.91;;;8.56;70.32
80777;BME280;70169;51.262;6.336;2023-05-24T04:52:19;101772.03;;;8.61;71.74
80777;BME280;70169;51.262;6.336;2023-05-24T04:56:02;101761.31;;;8.54;70.93
80777;BME280;70169;51.262;6.336;2023-05-24T04:59:44;101776.19;;;8.72;71.17
80777;BME280;70169;51.262;6.336;2023-05-24T05:03:26;101780.16;;;8.76;71.85
80777;BME280;70169;51.262;6.336;2023-05-24T05:07:08;101780.81;;;8.78;71.52
80777;BME280;70169;51.262;6.336;2023-05-24T05:10:51;101766.44;;;8.64;71.20
80777;BME280;70169;51.262;6.336;2023-05-24T05:14:33;101791.88;;;8.82;70.86
80777;BME280;70169;51.262;6.336;2023-05-24T05:18:15;101791.88;;;8.90;71.33
80777;BME280;70169;51.262;6.336;2023-05-24T05:21:58;101797.84;;;9.00;71.30
80777;BME280;70169;51.262;6.336;2023-05-24T05:25:40;101805.78;;;9.08;71.83
80777;BME280;70169;51.262;6.336;2023-05-24T05:29:22;101785.16;;;9.04;71.22
80777;BME280;70169;51.262;6.336;2023-05-24T05:33:05;101798.69;;;9.17;71.61
80777;BME280;70169;51.262;6.336;2023-05-24T05:36:47;101807.28;;;9.27;71.34
80777;BME280;70169;51.262;6.336;2023-05-24T05:40:30;101808.41;;;9.33;71.52
80777;BME280;70169;51.262;6.336;2023-05-24T05:44:12;101818.31;;;9.39;72.13
80777;BME280;70169;51.262;6.336;2023-05-24T05:47:55;101816.00;;;9.44;71.87
80777;BME280;70169;51.262;6.336;2023-05-24T05:51:37;101814.53;;;9.50;71.60
80777;BME280;70169;51.262;6.336;2023-05-24T05:55:20;101810.88;;;9.51;71.95
80777;BME280;70169;51.262;6.336;2023-05-24T05:59:02;101813.84;;;9.56;71.68
80777;BME280;70169;51.262;6.336;2023-05-24T06:02:44;101788.63;;;9.45;72.04
80777;BME280;70169;51.262;6.336;2023-05-24T06:06:27;101811.03;;;9.58;71.82
80777;BME280;70169;51.262;6.336;2023-05-24T06:10:09;101804.13;;;9.65;71.31
80777;BME280;70169;51.262;6.336;2023-05-24T06:13:52;101797.16;;;9.80;71.60
80777;BME280;70169;51.262;6.336;2023-05-24T06:17:35;101803.44;;;9.88;71.62
80777;BME280;70169;51.262;6.336;2023-05-24T06:21:18;101807.22;;;10.01;71.46
80777;BME280;70169;51.262;6.336;2023-05-24T06:25:01;101811.97;;;10.14;70.94
80777;BME280;70169;51.262;6.336;2023-05-24T06:28:44;101795.75;;;10.26;70.62
80777;BME280;70169;51.262;6.336;2023-05-24T06:32:26;101794.88;;;10.33;70.98
80777;BME280;70169;51.262;6.336;2023-05-24T06:36:08;101800.00;;;10.35;70.32
80777;BME280;70169;51.262;6.336;2023-05-24T06:39:51;101811.06;;;10.30;70.54
80777;BME280;70169;51.262;6.336;2023-05-24T06:43:33;101814.50;;;10.47;70.54
80777;BME280;70169;51.262;6.336;2023-05-24T06:47:15;101831.94;;;10.65;70.66
80777;BME280;70169;51.262;6.336;2023-05-24T06:50:58;101832.66;;;10.82;70.70
80777;BME280;70169;51.262;6.336;2023-05-24T06:54:40;101825.06;;;10.79;70.78
80777;BME280;70169;51.262;6.336;2023-05-24T06:58:22;101833.34;;;10.84;70.76
80777;BME280;70169;51.262;6.336;2023-05-24T07:02:05;101834.91;;;10.93;70.77
80777;BME280;70169;51.262;6.336;2023-05-24T07:05:47;101829.81;;;10.91;70.51
80777;BME280;70169;51.262;6.336;2023-05-24T07:09:29;101831.81;;;10.89;70.53
80777;BME280;70169;51.262;6.336;2023-05-24T07:13:12;101827.94;;;11.00;70.34
80777;BME280;70169;51.262;6.336;2023-05-24T07:16:54;101831.06;;;11.04;69.96
80777;BME280;70169;51.262;6.336;2023-05-24T07:20:38;101828.69;;;11.09;70.11
80777;BME280;70169;51.262;6.336;2023-05-24T07:24:20;101826.16;;;11.24;70.18
80777;BME280;70169;51.262;6.336;2023-05-24T07:28:04;101809.59;;;11.22;70.34
80777;BME280;70169;51.262;6.336;2023-05-24T07:31:46;101818.19;;;11.47;69.29
80777;BME280;70169;51.262;6.336;2023-05-24T07:35:29;101826.78;;;11.64;69.32
80777;BME280;70169;51.262;6.336;2023-05-24T07:39:12;101835.13;;;11.61;69.28
80777;BME280;70169;51.262;6.336;2023-05-24T07:42:56;101839.91;;;11.57;69.06
80777;BME280;70169;51.262;6.336;2023-05-24T07:46:39;101850.94;;;11.46;68.94
80777;BME280;70169;51.262;6.336;2023-05-24T07:50:21;101846.47;;;11.46;68.98
80777;BME280;70169;51.262;6.336;2023-05-24T07:54:04;101839.25;;;11.40;68.95
80777;BME280;70169;51.262;6.336;2023-05-24T07:57:46;101822.53;;;11.40;69.35
80777;BME280;70169;51.262;6.336;2023-05-24T08:01:30;101837.81;;;11.91;69.05
80777;BME280;70169;51.262;6.336;2023-05-24T08:05:13;101816.50;;;11.84;69.41
80777;BME280;70169;51.262;6.336;2023-05-24T08:08:56;101830.47;;;11.78;69.06
80777;BME280;70169;51.262;6.336;2023-05-24T08:12:38;101834.78;;;11.79;68.49
80777;BME280;70169;51.262;6.336;2023-05-24T08:16:21;101825.63;;;11.81;68.17
80777;BME280;70169;51.262;6.336;2023-05-24T08:20:03;101828.38;;;11.73;67.90
80777;BME280;70169;51.262;6.336;2023-05-24T08:23:48;101832.75;;;11.66;67.93
80777;BME280;70169;51.262;6.336;2023-05-24T08:27:30;101821.78;;;11.69;68.07
80777;BME280;70169;51.262;6.336;2023-05-24T08:31:12;101829.22;;;11.74;68.18
80777;BME280;70169;51.262;6.336;2023-05-24T08:34:55;101820.59;;;11.72;68.23
80777;BME280;70169;51.262;6.336;2023-05-24T08:38:37;101826.66;;;11.80;68.55
80777;BME280;70169;51.262;6.336;2023-05-24T08:42:20;101833.31;;;11.76;68.34
80777;BME280;70169;51.262;6.336;2023-05-24T08:46:03;101835.94;;;11.76;68.49
80777;BME280;70169;51.262;6.336;2023-05-24T08:49:46;101828.53;;;11.72;68.13
80777;BME280;70169;51.262;6.336;2023-05-24T08:53:29;101823.81;;;11.82;68.46
80777;BME280;70169;51.262;6.336;2023-05-24T08:57:14;101831.03;;;11.88;68.33
80777;BME280;70169;51.262;6.336;2023-05-24T09:00:57;101826.34;;;11.98;68.60
80777;BME280;70169;51.262;6.336;2023-05-24T09:04:40;101826.78;;;12.02;68.15
80777;BME280;70169;51.262;6.336;2023-05-24T09:08:25;101825.88;;;12.10;68.00
80777;BME280;70169;51.262;6.336;2023-05-24T09:12:10;101820.19;;;12.43;67.17
80777;BME280;70169;51.262;6.336;2023-05-24T09:15:55;101803.91;;;12.61;67.26
80777;BME280;70169;51.262;6.336;2023-05-24T09:19:38;101800.97;;;12.70;66.42
80777;BME280;70169;51.262;6.336;2023-05-24T09:23:21;101806.22;;;12.85;65.47
80777;BME280;70169;51.262;6.336;2023-05-24T09:27:05;101803.69;;;12.77;64.79
80777;BME280;70169;51.262;6.336;2023-05-24T09:30:58;101808.50;;;12.88;65.23
80777;BME280;70169;51.262;6.336;2023-05-24T09:34:42;101796.09;;;12.74;64.37
80777;BME280;70169;51.262;6.336;2023-05-24T09:38:25;101804.31;;;12.79;64.73
80777;BME280;70169;51.262;6.336;2023-05-24T09:42:07;101806.97;;;12.79;65.04
80777;BME280;70169;51.262;6.336;2023-05-24T09:45:50;101799.69;;;12.66;63.92
80777;BME280;70169;51.262;6.336;2023-05-24T09:49:38;101797.34;;;12.78;64.82
80777;BME280;70169;51.262;6.336;2023-05-24T09:53:21;101787.88;;;12.69;64.64
80777;BME280;70169;51.262;6.336;2023-05-24T09:57:03;101789.50;;;12.70;64.96
80777;BME280;70169;51.262;6.336;2023-05-24T10:00:47;101795.66;;;12.55;64.78
80777;BME280;70169;51.262;6.336;2023-05-24T10:04:33;101795.78;;;12.47;65.29
80777;BME280;70169;51.262;6.336;2023-05-24T10:08:16;101787.22;;;12.30;65.57
80777;BME280;70169;51.262;6.336;2023-05-24T10:12:06;101784.09;;;12.27;65.61
80777;BME280;70169;51.262;6.336;2023-05-24T10:15:49;101805.22;;;12.35;65.63
80777;BME280;70169;51.262;6.336;2023-05-24T10:19:33;101806.56;;;12.46;65.44
80777;BME280;70169;51.262;6.336;2023-05-24T10:23:19;101808.13;;;12.55;64.84
80777;BME280;70169;51.262;6.336;2023-05-24T10:27:04;101800.13;;;12.70;64.99
80777;BME280;70169;51.262;6.336;2023-05-24T10:31:02;101803.44;;;12.93;64.84
80777;BME280;70169;51.262;6.336;2023-05-24T10:34:48;101795.03;;;13.11;64.89
80777;BME280;70169;51.262;6.336;2023-05-24T10:38:31;101801.44;;;13.39;64.38
80777;BME280;70169;51.262;6.336;2023-05-24T10:42:14;101801.47;;;13.45;64.90
80777;BME280;70169;51.262;6.336;2023-05-24T10:45:58;101800.81;;;13.37;64.13
80777;BME280;70169;51.262;6.336;2023-05-24T10:50:15;101802.44;;;13.38;63.54
80777;BME280;70169;51.262;6.336;2023-05-24T10:54:09;101788.78;;;13.41;62.24
80777;BME280;70169;51.262;6.336;2023-05-24T10:57:54;101788.63;;;13.49;61.86
80777;BME280;70169;51.262;6.336;2023-05-24T11:01:36;101786.94;;;13.70;61.69
80777;BME280;70169;51.262;6.336;2023-05-24T11:05:18;101777.34;;;13.68;60.13
80777;BME280;70169;51.262;6.336;2023-05-24T11:09:01;101776.34;;;13.76;60.08
80777;BME280;70169;51.262;6.336;2023-05-24T11:12:44;101769.19;;;13.70;59.10
80777;BME280;70169;51.262;6.336;2023-05-24T11:16:36;101777.81;;;13.79;58.72
80777;BME280;70169;51.262;6.336;2023-05-24T11:20:19;101759.38;;;13.71;58.24
80777;BME280;70169;51.262;6.336;2023-05-24T11:24:01;101776.94;;;13.72;57.66
80777;BME280;70169;51.262;6.336;2023-05-24T11:27:45;101760.97;;;14.00;56.34
80777;BME280;70169;51.262;6.336;2023-05-24T11:31:27;101755.09;;;14.11;55.03
80777;BME280;70169;51.262;6.336;2023-05-24T11:35:10;101751.66;;;14.24;55.50
80777;BME280;70169;51.262;6.336;2023-05-24T11:38:54;101747.41;;;14.30;54.95
80777;BME280;70169;51.262;6.336;2023-05-24T11:42:37;101756.00;;;14.32;55.91
80777;BME280;70169;51.262;6.336;2023-05-24T11:46:20;101743.53;;;14.46;55.04
80777;BME280;70169;51.262;6.336;2023-05-24T11:50:02;101753.78;;;14.49;54.98
80777;BME280;70169;51.262;6.336;2023-05-24T11:53:46;101734.16;;;14.50;54.76
80777;BME280;70169;51.262;6.336;2023-05-24T11:57:36;101748.78;;;14.74;54.85
80777;BME280;70169;51.262;6.336;2023-05-24T12:01:22;101739.78;;;14.68;54.17
80777;BME280;70169;51.262;6.336;2023-05-24T12:05:06;101735.06;;;14.70;54.35
80777;BME280;70169;51.262;6.336;2023-05-24T12:08:50;101727.47;;;14.61;54.03
80777;BME280;70169;51.262;6.336;2023-05-24T12:12:33;101740.38;;;14.64;54.22
80777;BME280;70169;51.262;6.336;2023-05-24T12:16:15;101741.16;;;14.57;54.50
80777;BME280;70169;51.262;6.336;2023-05-24T12:19:57;101738.03;;;14.47;54.50
80777;BME280;70169;51.262;6.336;2023-05-24T12:23:43;101737.00;;;14.35;54.96
80777;BME280;70169;51.262;6.336;2023-05-24T12:27:29;101744.31;;;14.26;55.17
80777;BME280;70169;51.262;6.336;2023-05-24T12:31:12;101737.75;;;14.15;55.41
80777;BME280;70169;51.262;6.336;2023-05-24T12:34:55;101725.44;;;14.08;55.79
80777;BME280;70169;51.262;6.336;2023-05-24T12:38:37;101742.59;;;14.05;54.28
80777;BME280;70169;51.262;6.336;2023-05-24T12:42:19;101723.72;;;13.93;55.69
80777;BME280;70169;51.262;6.336;2023-05-24T12:46:04;101740.91;;;13.97;55.16
80777;BME280;70169;51.262;6.336;2023-05-24T12:49:47;101726.56;;;13.85;55.49
80777;BME280;70169;51.262;6.336;2023-05-24T12:53:30;101744.19;;;13.93;55.29
80777;BME280;70169;51.262;6.336;2023-05-24T12:57:12;101736.63;;;13.96;55.75
80777;BME280;70169;51.262;6.336;2023-05-24T13:00:54;101734.34;;;13.93;56.14
80777;BME280;70169;51.262;6.336;2023-05-24T13:04:37;101750.56;;;14.05;55.66
80777;BME280;70169;51.262;6.336;2023-05-24T13:08:19;101748.53;;;14.07;56.33
80777;BME280;70169;51.262;6.336;2023-05-24T13:12:02;101748.31;;;14.09;56.43
80777;BME280;70169;51.262;6.336;2023-05-24T13:15:46;101740.19;;;14.17;56.78
80777;BME280;70169;51.262;6.336;2023-05-24T13:19:28;101740.84;;;14.26;56.44
80777;BME280;70169;51.262;6.336;2023-05-24T13:23:10;101748.25;;;14.37;56.65
80777;BME280;70169;51.262;6.336;2023-05-24T13:26:54;101751.31;;;14.40;55.70
80777;BME280;70169;51.262;6.336;2023-05-24T13:30:36;101744.59;;;14.45;56.23
80777;BME280;70169;51.262;6.336;2023-05-24T13:34:18;101726.56;;;14.47;56.41
80777;BME280;70169;51.262;6.336;2023-05-24T13:38:01;101743.59;;;14.59;55.37
80777;BME280;70169;51.262;6.336;2023-05-24T13:41:43;101742.63;;;14.67;55.87
80777;BME280;70169;51.262;6.336;2023-05-24T13:45:26;101739.34;;;14.65;56.39
80777;BME280;70169;51.262;6.336;2023-05-24T13:49:09;101740.94;;;14.59;56.46
80777;BME280;70169;51.262;6.336;2023-05-24T13:52:52;101723.50;;;14.50;57.17
80777;BME280;70169;51.262;6.336;2023-05-24T13:56:34;101742.56;;;14.53;55.51
80777;BME280;70169;51.262;6.336;2023-05-24T14:00:17;101736.06;;;14.63;56.29
80777;BME280;70169;51.262;6.336;2023-05-24T14:04:01;101740.59;;;14.69;57.05
80777;BME280;70169;51.262;6.336;2023-05-24T14:07:43;101742.00;;;14.65;56.79
80777;BME280;70169;51.262;6.336;2023-05-24T14:11:26;101735.88;;;14.64;56.78
80777;BME280;70169;51.262;6.336;2023-05-24T14:15:12;101739.94;;;14.60;56.98
80777;BME280;70169;51.262;6.336;2023-05-24T14:18:54;101741.34;;;14.56;56.27
80777;BME280;70169;51.262;6.336;2023-05-24T14:22:36;101740.09;;;14.58;56.44
80777;BME280;70169;51.262;6.336;2023-05-24T14:26:19;101745.09;;;14.82;56.20
80777;BME280;70169;51.262;6.336;2023-05-24T14:30:04;101729.34;;;14.93;54.76
80777;BME280;70169;51.262;6.336;2023-05-24T14:33:47;101733.44;;;15.03;55.33
80777;BME280;70169;51.262;6.336;2023-05-24T14:37:29;101732.84;;;15.07;55.74
80777;BME280;70169;51.262;6.336;2023-05-24T14:41:12;101715.00;;;15.14;56.08
80777;BME280;70169;51.262;6.336;2023-05-24T14:44:54;101727.72;;;15.26;55.55
80777;BME280;70169;51.262;6.336;2023-05-24T14:48:36;101721.59;;;15.12;55.50
80777;BME280;70169;51.262;6.336;2023-05-24T14:52:22;101720.94;;;15.03;55.41
80777;BME280;70169;51.262;6.336;2023-05-24T14:56:04;101722.19;;;15.01;55.34
80777;BME280;70169;51.262;6.336;2023-05-24T14:59:49;101716.03;;;15.00;54.95
80777;BME280;70169;51.262;6.336;2023-05-24T15:03:31;101730.19;;;15.07;55.56
80777;BME280;70169;51.262;6.336;2023-05-24T15:07:13;101724.22;;;14.99;55.10
80777;BME280;70169;51.262;6.336;2023-05-24T15:10:57;101713.56;;;14.99;55.46
80777;BME280;70169;51.262;6.336;2023-05-24T15:14:39;101724.63;;;14.89;55.38
80777;BME280;70169;51.262;6.336;2023-05-24T15:18:21;101723.22;;;14.86;55.58
80777;BME280;70169;51.262;6.336;2023-05-24T15:22:06;101724.84;;;15.07;55.95
80777;BME280;70169;51.262;6.336;2023-05-24T15:25:48;101698.63;;;15.11;55.25
80777;BME280;70169;51.262;6.336;2023-05-24T15:29:31;101697.38;;;15.34;55.02
80777;BME280;70169;51.262;6.336;2023-05-24T15:33:13;101706.97;;;15.55;55.18
80777;BME280;70169;51.262;6.336;2023-05-24T15:36:57;101714.75;;;15.56;54.39
80777;BME280;70169;51.262;6.336;2023-05-24T15:40:40;101713.53;;;15.45;54.66
80777;BME280;70169;51.262;6.336;2023-05-24T15:44:23;101722.38;;;15.46;54.52
80777;BME280;70169;51.262;6.336;2023-05-24T15:48:05;101711.94;;;15.38;54.59
80777;BME280;70169;51.262;6.336;2023-05-24T15:51:48;101699.25;;;15.06;53.58
80777;BME280;70169;51.262;6.336;2023-05-24T15:55:30;101712.75;;;15.05;54.38
80777;BME280;70169;51.262;6.336;2023-05-24T15:59:13;101699.66;;;14.83;54.34
80777;BME280;70169;51.262;6.336;2023-05-24T16:02:55;101710.72;;;14.87;54.67
80777;BME280;70169;51.262;6.336;2023-05-24T16:06:38;101716.44;;;14.84;54.41
80777;BME280;70169;51.262;6.336;2023-05-24T16:10:21;101713.56;;;14.85;54.86
80777;BME280;70169;51.262;6.336;2023-05-24T16:14:03;101712.13;;;14.83;55.16
80777;BME280;70169;51.262;6.336;2023-05-24T16:17:47;101694.34;;;14.76;55.12
80777;BME280;70169;51.262;6.336;2023-05-24T16:21:29;101701.50;;;14.89;55.36
80777;BME280;70169;51.262;6.336;2023-05-24T16:25:13;101701.91;;;14.93;55.27
80777;BME280;70169;51.262;6.336;2023-05-24T16:28:56;101698.44;;;14.99;56.09
80777;BME280;70169;51.262;6.336;2023-05-24T16:32:47;101687.78;;;15.06;55.64
80777;BME280;70169;51.262;6.336;2023-05-24T16:36:30;101666.06;;;14.95;55.46
80777;BME280;70169;51.262;6.336;2023-05-24T16:40:28;101681.63;;;14.99;54.54
80777;BME280;70169;51.262;6.336;2023-05-24T16:44:10;101675.50;;;14.98;54.83
80777;BME280;70169;51.262;6.336;2023-05-24T16:47:58;101672.63;;;14.93;55.14
80777;BME280;70169;51.262;6.336;2023-05-24T16:51:40;101655.84;;;14.79;55.37
80777;BME280;70169;51.262;6.336;2023-05-24T16:55:22;101677.31;;;14.84;55.40
80777;BME280;70169;51.262;6.336;2023-05-24T16:59:05;101669.13;;;14.79;56.01
80777;BME280;70169;51.262;6.336;2023-05-24T17:02:48;101671.41;;;14.82;56.12
80777;BME280;70169;51.262;6.336;2023-05-24T17:06:30;101681.44;;;14.80;55.81
80777;BME280;70169;51.262;6.336;2023-05-24T17:10:13;101682.66;;;14.77;55.98
80777;BME280;70169;51.262;6.336;2023-05-24T17:13:55;101660.34;;;14.65;56.29
80777;BME280;70169;51.262;6.336;2023-05-24T17:17:37;101684.91;;;14.74;56.25
80777;BME280;70169;51.262;6.336;2023-05-24T17:21:20;101685.31;;;14.71;56.65
80777;BME280;70169;51.262;6.336;2023-05-24T17:25:03;101692.06;;;14.67;56.48
80777;BME280;70169;51.262;6.336;2023-05-24T17:28:45;101696.16;;;14.63;56.45
80777;BME280;70169;51.262;6.336;2023-05-24T17:32:28;101696.56;;;14.59;56.28
80777;BME280;70169;51.262;6.336;2023-05-24T17:36:10;101697.38;;;14.60;56.71
80777;BME280;70169;51.262;6.336;2023-05-24T17:39:52;101695.31;;;14.55;56.21
80777;BME280;70169;51.262;6.336;2023-05-24T17:43:35;101683.00;;;14.48;56.40
80777;BME280;70169;51.262;6.336;2023-05-24T17:47:20;101696.13;;;14.56;56.67
80777;BME280;70169;51.262;6.336;2023-05-24T17:51:04;101682.81;;;14.49;56.30
80777;BME280;70169;51.262;6.336;2023-05-24T17:54:46;101701.88;;;14.59;56.73
80777;BME280;70169;51.262;6.336;2023-05-24T17:58:30;101700.63;;;14.55;56.91
80777;BME280;70169;51.262;6.336;2023-05-24T18:02:16;101690.19;;;14.54;57.32
80777;BME280;70169;51.262;6.336;2023-05-24T18:05:58;101697.13;;;14.48;57.37
80777;BME280;70169;51.262;6.336;2023-05-24T18:09:42;101703.03;;;14.44;57.77
80777;BME280;70169;51.262;6.336;2023-05-24T18:13:24;101699.75;;;14.41;57.69
80777;BME280;70169;51.262;6.336;2023-05-24T18:17:07;101694.03;;;14.38;57.80
80777;BME280;70169;51.262;6.336;2023-05-24T18:20:50;101690.91;;;14.28;57.93
80777;BME280;70169;51.262;6.336;2023-05-24T18:24:33;101698.09;;;14.34;58.16
80777;BME280;70169;51.262;6.336;2023-05-24T18:28:15;101706.28;;;14.32;58.18
80777;BME280;70169;51.262;6.336;2023-05-24T18:31:57;101699.53;;;14.30;57.81
80777;BME280;70169;51.262;6.336;2023-05-24T18:35:40;101691.72;;;14.21;58.23
80777;BME280;70169;51.262;6.336;2023-05-24T18:39:22;101691.31;;;14.25;58.58
80777;BME280;70169;51.262;6.336;2023-05-24T18:43:04;101706.84;;;14.21;58.26
80777;BME280;70169;51.262;6.336;2023-05-24T18:46:47;101706.25;;;14.19;58.84
80777;BME280;70169;51.262;6.336;2023-05-24T18:50:29;101710.94;;;14.17;58.53
80777;BME280;70169;51.262;6.336;2023-05-24T18:54:12;101706.84;;;14.14;59.04
80777;BME280;70169;51.262;6.336;2023-05-24T18:57:54;101708.88;;;14.12;59.19
80777;BME280;70169;51.262;6.336;2023-05-24T19:01:37;101716.66;;;14.14;59.69
80777;BME280;70169;51.262;6.336;2023-05-24T19:05:19;101716.41;;;14.09;59.53
80777;BME280;70169;51.262;6.336;2023-05-24T19:09:02;101708.00;;;13.98;60.01
80777;BME280;70169;51.262;6.336;2023-05-24T19:12:45;101730.13;;;14.06;59.95
80777;BME280;70169;51.262;6.336;2023-05-24T19:16:27;101735.66;;;14.04;60.31
80777;BME280;70169;51.262;6.336;2023-05-24T19:20:10;101735.84;;;14.02;60.25
80777;BME280;70169;51.262;6.336;2023-05-24T19:23:52;101740.91;;;13.97;60.43
80777;BME280;70169;51.262;6.336;2023-05-24T19:27:35;101754.38;;;13.96;60.78
80777;BME280;70169;51.262;6.336;2023-05-24T19:31:17;101752.78;;;13.95;60.50
80777;BME280;70169;51.262;6.336;2023-05-24T19:35:00;101739.41;;;13.81;60.79
80777;BME280;70169;51.262;6.336;2023-05-24T19:38:42;101757.66;;;13.91;60.34
80777;BME280;70169;51.262;6.336;2023-05-24T19:42:25;101760.72;;;13.88;60.42